Time;durP1;ratioP1;P1;durP2;ratioP2;P2;SDS_P1;SDS_P2;PMS_P1;PMS_P2;Temp;Humidity;BMP_temperature;BMP_pressure;BME280_temperature;BME280_humidity;BME280_pressure;Samples;Min_cycle;Max_cycle;Signal;HPM_P1;HPM_P2
2022/08/08 00:01:51;;;;;;;16.65;7.88;;;;;;;18.45;100.00;96936.56;4985570;28;20053;-65
2022/08/08 00:04:48;;;;;;;12.50;7.85;;;;;;;18.39;100.00;96918.66;4987228;28;20736;-59
2022/08/08 00:07:48;;;;;;;11.60;7.55;;;;;;;18.35;100.00;96937.53;4988464;28;20495;-60
2022/08/08 00:10:21;;;;;;;11.70;7.28;;;;;;;18.29;100.00;96939.19;4988890;28;20058;-65
2022/08/08 00:13:25;;;;;;;10.80;7.22;;;;;;;18.28;100.00;96940.41;4988252;28;20513;-66
2022/08/08 00:16:19;;;;;;;12.48;7.20;;;;;;;18.33;100.00;96939.94;4988186;28;20057;-60
2022/08/08 00:19:17;;;;;;;10.20;8.18;;;;;;;18.29;100.00;96944.81;4988379;28;20058;-60
2022/08/08 00:21:50;;;;;;;14.85;7.50;;;;;;;18.36;100.00;96944.72;4988350;28;20054;-66
2022/08/08 00:24:27;;;;;;;13.32;7.57;;;;;;;18.36;100.00;96944.72;4988347;28;20051;-59
2022/08/08 00:27:00;;;;;;;8.40;6.40;;;;;;;18.19;100.00;96940.16;4988151;28;20050;-66
2022/08/08 00:29:48;;;;;;;12.07;7.63;;;;;;;18.24;100.00;96942.47;4988111;28;20650;-66
2022/08/08 00:32:21;;;;;;;11.63;6.95;;;;;;;18.14;100.00;96949.03;4987928;28;20105;-60
2022/08/08 00:35:25;;;;;;;11.70;8.10;;;;;;;18.05;100.00;96929.16;4987000;28;20054;-62
2022/08/08 00:38:04;;;;;;;12.23;7.00;;;;;;;18.02;100.00;96941.19;4987685;28;20105;-60
2022/08/08 00:40:38;;;;;;;13.93;7.43;;;;;;;18.17;100.00;96953.81;4988066;28;20077;-65
2022/08/08 00:43:40;;;;;;;12.10;7.35;;;;;;;17.99;100.00;96947.63;4988224;28;20140;-60
2022/08/08 00:46:27;;;;;;;11.70;7.55;;;;;;;17.95;100.00;96946.91;4987913;28;20085;-60
2022/08/08 00:49:36;;;;;;;12.38;7.45;;;;;;;17.99;100.00;96954.03;4987753;28;20062;-66
2022/08/08 00:52:21;;;;;;;10.65;7.43;;;;;;;17.88;100.00;96958.19;5003001;28;20065;-66
2022/08/08 00:55:21;;;;;;;12.55;7.28;;;;;;;17.81;100.00;96955.50;5007546;28;20054;-60
2022/08/08 00:58:22;;;;;;;10.77;7.45;;;;;;;17.77;100.00;96940.72;5007891;28;20057;-60
2022/08/08 01:01:05;;;;;;;8.63;6.78;;;;;;;17.86;100.00;96946.63;5007398;28;20053;-60
2022/08/08 01:04:11;;;;;;;11.63;6.97;;;;;;;17.82;100.00;96948.66;5007239;28;20072;-61
2022/08/08 01:07:18;;;;;;;10.95;7.13;;;;;;;17.79;100.00;96950.31;5007128;28;20447;-60
2022/08/08 01:10:20;;;;;;;17.23;6.82;;;;;;;17.18;100.00;96856.19;5006800;28;20057;-66
2022/08/08 01:12:56;;;;;;;14.75;7.70;;;;;;;17.76;100.00;96950.34;5007004;28;20061;-63
2022/08/08 01:15:34;;;;;;;19.98;7.45;;;;;;;17.77;100.00;96935.91;5007016;28;20431;-66
2022/08/08 01:18:16;;;;;;;12.25;7.75;;;;;;;17.72;100.00;96932.81;5006537;28;20123;-59
2022/08/08 01:21:33;;;;;;;10.20;6.85;;;;;;;17.67;100.00;96947.28;5006289;28;20054;-61
2022/08/08 01:24:47;;;;;;;9.52;6.90;;;;;;;17.78;100.00;96942.31;5019133;28;20410;-63
2022/08/08 01:28:02;;;;;;;12.85;6.70;;;;;;;17.73;100.00;96939.97;5006467;28;20061;-61
2022/08/08 01:30:51;;;;;;;13.93;7.18;;;;;;;17.69;100.00;96944.81;5006955;28;20058;-65
2022/08/08 01:33:21;;;;;;;12.30;7.00;;;;;;;17.73;100.00;96939.97;5006202;28;20515;-62
2022/08/08 01:36:27;;;;;;;8.05;6.28;;;;;;;17.71;100.00;96946.00;5020724;28;20104;-66
2022/08/08 01:39:17;;;;;;;13.23;6.80;;;;;;;17.65;100.00;96949.69;5006355;28;20431;-60
2022/08/08 01:42:26;;;;;;;11.00;6.53;;;;;;;17.69;100.00;96944.81;5006296;28;20054;-66
2022/08/08 01:45:32;;;;;;;12.88;7.20;;;;;;;17.60;100.00;96941.75;5020247;28;20133;-66
2022/08/08 01:48:34;;;;;;;12.00;7.13;;;;;;;17.54;100.00;96937.81;5006393;28;20491;-65
2022/08/08 01:51:10;;;;;;;11.38;7.25;;;;;;;17.46;100.00;96941.91;5006386;28;20126;-60
2022/08/08 01:54:15;;;;;;;11.95;6.40;;;;;;;17.36;100.00;96949.19;5006614;28;20054;-66
2022/08/08 01:57:11;;;;;;;10.75;6.65;;;;;;;17.26;100.00;96961.28;5005825;28;20520;-60
2022/08/08 02:00:17;;;;;;;9.38;7.22;;;;;;;17.26;100.00;96955.69;5006317;28;20057;-65
2022/08/08 02:02:53;;;;;;;14.82;7.95;;;;;;;17.24;100.00;96957.31;5006159;28;20088;-62
2022/08/08 02:05:31;;;;;;;12.15;6.32;;;;;;;17.28;100.00;96955.28;5005702;28;20061;-63
2022/08/08 02:08:29;;;;;;;9.35;6.78;;;;;;;16.90;100.00;96911.69;5004498;28;20058;-60
2022/08/08 02:11:17;;;;;;;10.43;6.65;;;;;;;17.04;100.00;96948.72;5005914;28;20053;-66
2022/08/08 02:13:56;;;;;;;8.90;6.40;;;;;;;17.07;100.00;96947.09;5004868;28;20057;-59
2022/08/08 02:17:05;;;;;;;10.00;7.20;;;;;;;17.17;100.00;96951.78;5004456;28;20049;-65
2022/08/08 02:19:44;;;;;;;11.27;7.22;;;;;;;17.14;100.00;96947.81;5005649;28;20064;-65
2022/08/08 02:23:12;;;;;;;12.50;6.93;;;;;;;17.08;100.00;96943.09;5005384;28;20476;-60
2022/08/08 02:25:56;;;;;;;12.82;7.32;;;;;;;17.21;100.00;96950.56;5005387;28;20120;-66
2022/08/08 02:28:41;;;;;;;14.45;7.15;;;;;;;17.26;100.00;96950.09;5005367;28;20508;-61
2022/08/08 02:31:41;;;;;;;8.57;6.80;;;;;;;17.19;100.00;96954.97;5004106;28;20054;-62
2022/08/08 02:34:29;;;;;;;12.55;7.18;;;;;;;17.20;100.00;96950.97;5005524;28;20056;-60
2022/08/08 02:37:21;;;;;;;11.30;6.93;;;;;;;17.22;100.00;96954.13;5004999;28;20111;-60
2022/08/08 02:40:15;;;;;;;12.13;6.50;;;;;;;17.14;100.00;96944.22;5005732;28;20471;-66
2022/08/08 02:43:00;;;;;;;9.57;6.85;;;;;;;17.23;100.00;96948.13;5005085;28;20523;-60
2022/08/08 02:45:57;;;;;;;10.75;6.88;;;;;;;16.76;100.00;96920.22;5004572;28;20053;-60
2022/08/08 02:48:47;;;;;;;10.98;7.07;;;;;;;17.14;100.00;96959.03;5004880;28;20116;-60
2022/08/08 02:52:08;;;;;;;14.02;7.38;;;;;;;17.01;100.00;96937.56;4996727;28;20050;-60
2022/08/08 02:55:29;;;;;;;10.77;7.45;;;;;;;17.19;100.00;96960.56;4968923;28;20054;-65
2022/08/08 02:58:18;;;;;;;10.25;7.80;;;;;;;17.10;100.00;96968.66;4985516;28;20572;-60
2022/08/08 03:01:04;;;;;;;13.88;7.28;;;;;;;17.03;100.00;96971.53;4984026;28;20157;-66
2022/08/08 03:03:53;;;;;;;13.05;7.68;;;;;;;17.14;100.00;96972.22;4983750;28;20053;-61
2022/08/08 03:06:39;;;;;;;11.57;7.75;;;;;;;17.16;100.00;96961.41;4985031;28;20303;-60
2022/08/08 03:09:25;;;;;;;9.68;7.45;;;;;;;17.09;100.00;96961.47;4985550;28;20051;-66
2022/08/08 03:12:46;;;;;;;10.43;7.18;;;;;;;17.20;100.00;96967.78;4984071;28;20050;-59
2022/08/08 03:16:06;;;;;;;8.52;6.38;;;;;;;17.21;100.00;96974.97;4962912;28;20062;-61
2022/08/08 03:18:36;;;;;;;13.27;7.82;;;;;;;17.16;100.00;96972.59;4962493;28;20058;-66
2022/08/08 03:21:04;;;;;;;9.75;7.20;;;;;;;17.09;100.00;96972.66;4978762;28;20136;-65
2022/08/08 03:23:40;;;;;;;15.52;7.72;;;;;;;16.81;100.00;96925.34;4985230;28;20054;-65
2022/08/08 03:26:31;;;;;;;15.05;8.57;;;;;;;17.13;100.00;96973.44;4984465;28;20086;-61
2022/08/08 03:29:15;;;;;;;11.40;8.30;;;;;;;17.21;100.00;96986.16;4985213;28;20085;-59
2022/08/08 03:34:55;;;;;;;11.98;7.60;;;;;;;16.86;100.00;96938.91;4985132;28;20086;-66
2022/08/08 03:37:22;;;;;;;10.02;6.88;;;;;;;17.10;100.00;96979.88;4985094;28;20046;-65
2022/08/08 03:40:09;;;;;;;11.55;7.35;;;;;;;17.01;100.00;96993.56;4984855;28;20058;-66
2022/08/08 03:42:57;;;;;;;13.73;8.27;;;;;;;17.10;100.00;96991.06;4983448;28;20050;-65
2022/08/08 03:45:44;;;;;;;13.73;8.07;;;;;;;17.20;100.00;97002.16;4985024;28;20517;-66
2022/08/08 03:48:30;;;;;;;11.55;8.60;;;;;;;17.23;100.00;96994.94;4983143;28;20062;-60
2022/08/08 03:51:17;;;;;;;10.23;6.72;;;;;;;17.39;100.00;96995.16;4992110;28;20046;-66
2022/08/08 03:53:53;;;;;;;9.00;7.05;;;;;;;17.47;100.00;96993.91;5004559;28;20061;-60
2022/08/08 03:56:21;;;;;;;12.65;7.65;;;;;;;17.44;100.00;97000.31;5003965;28;20089;-60
2022/08/08 03:58:57;;;;;;;13.88;7.88;;;;;;;17.48;100.00;97001.88;5004158;28;20081;-59
2022/08/08 04:01:37;;;;;;;11.45;8.02;;;;;;;17.59;100.00;97007.41;5004241;28;20133;-60
2022/08/08 04:04:24;;;;;;;11.48;7.25;;;;;;;17.67;100.00;96997.69;5002767;28;20049;-60
2022/08/08 04:06:57;;;;;;;10.20;7.23;;;;;;;17.76;100.00;97000.78;5004042;28;20137;-67
2022/08/08 04:09:27;;;;;;;8.75;7.47;;;;;;;17.64;100.00;96990.13;5002444;28;20049;-64
2022/08/08 04:12:14;;;;;;;12.93;8.05;;;;;;;17.90;100.00;97006.22;5004084;28;20328;-60
2022/08/08 04:14:41;;;;;;;10.52;7.13;;;;;;;17.81;100.00;96989.13;5005989;28;20050;-60
2022/08/08 04:17:11;;;;;;;10.07;7.65;;;;;;;17.81;100.00;96980.72;5007645;28;20493;-65
2022/08/08 04:19:58;;;;;;;9.10;6.88;;;;;;;18.01;100.00;97007.69;5008020;28;20467;-60
2022/08/08 04:22:29;;;;;;;11.00;6.63;;;;;;;17.96;100.00;96974.50;5006279;28;20061;-62
2022/08/08 04:24:55;;;;;;;10.10;6.38;;;;;;;17.96;100.00;96976.50;5007396;28;20448;-66
2022/08/08 04:27:23;;;;;;;10.55;7.22;;;;;;;18.27;100.00;97013.75;5006973;28;20444;-65
2022/08/08 04:30:11;;;;;;;14.85;8.85;;;;;;;18.24;100.00;96964.91;5008059;28;20085;-65
2022/08/08 04:32:44;;;;;;;11.45;7.50;;;;;;;18.28;100.00;96943.22;5005997;28;20527;-60
2022/08/08 04:35:16;;;;;;;9.93;7.22;;;;;;;18.82;100.00;97014.97;5007754;28;20058;-63
2022/08/08 04:37:45;;;;;;;11.68;6.95;;;;;;;18.85;100.00;97011.31;5006189;28;20153;-65
2022/08/08 04:40:14;;;;;;;9.77;6.97;;;;;;;18.76;100.00;96968.16;5007513;28;20060;-64
2022/08/08 04:42:43;;;;;;;12.32;7.95;;;;;;;19.00;100.00;97017.50;5007243;28;20200;-64
2022/08/08 04:45:24;;;;;;;10.35;6.93;;;;;;;19.19;100.00;97020.38;5007172;28;20046;-65
2022/08/08 04:47:52;;;;;;;9.52;5.80;;;;;;;19.08;100.00;96997.28;5007128;28;20062;-60
2022/08/08 04:50:20;;;;;;;9.80;6.63;;;;;;;19.26;100.00;97003.41;5006979;28;20567;-65
2022/08/08 04:52:55;;;;;;;14.50;7.10;;;;;;;19.50;100.00;97013.44;5001145;28;20066;-65
2022/08/08 04:55:31;;;;;;;13.35;7.22;;;;;;;19.73;100.00;97020.25;4987614;28;20093;-59
2022/08/08 04:58:17;;;;;;;11.55;6.40;;;;;;;19.68;100.00;97018.69;4987179;28;20551;-66
2022/08/08 05:00:43;;;;;;;13.70;6.35;;;;;;;20.00;100.00;97018.06;5001656;28;20058;-60
2022/08/08 05:03:14;;;;;;;9.25;5.70;;;;;;;20.22;100.00;97024.88;5001577;28;20089;-65
2022/08/08 05:06:01;;;;;;;11.98;6.18;;;;;;;20.27;100.00;97021.56;4987383;28;20050;-64
2022/08/08 05:08:42;;;;;;;9.18;5.90;;;;;;;20.46;100.00;97015.09;5000753;28;20054;-65
2022/08/08 05:11:15;;;;;;;9.80;5.78;;;;;;;20.20;100.00;96968.28;4988140;28;20058;-61
2022/08/08 05:13:49;;;;;;;10.70;6.03;;;;;;;20.61;100.00;97007.94;5001167;28;20088;-60
2022/08/08 05:16:29;;;;;;;8.35;6.15;;;;;;;20.60;99.96;96972.56;4986984;28;20058;-61
2022/08/08 05:19:16;;;;;;;9.02;6.68;;;;;;;20.81;99.33;96988.97;4986698;28;20065;-65
2022/08/08 05:22:08;;;;;;;11.00;7.28;;;;;;;21.22;97.87;97025.00;4986746;28;20050;-59
2022/08/08 05:24:36;;;;;;;10.35;7.22;;;;;;;21.35;97.00;97023.06;4985218;28;20116;-66
2022/08/08 05:27:05;;;;;;;11.57;7.93;;;;;;;21.56;97.06;97028.16;4986857;28;20486;-60
2022/08/08 05:29:32;;;;;;;11.77;6.63;;;;;;;21.78;92.95;97044.06;4987009;28;20433;-65
2022/08/08 05:32:03;;;;;;;11.82;6.70;;;;;;;21.37;92.65;96936.81;4986389;28;20576;-60
2022/08/08 05:34:47;;;;;;;7.45;5.80;;;;;;;22.11;93.96;97028.63;4986973;28;20073;-66
2022/08/08 05:37:24;;;;;;;8.52;6.25;;;;;;;22.30;90.64;97033.31;4987085;28;20046;-65
2022/08/08 05:40:12;;;;;;;8.20;6.60;;;;;;;21.76;87.68;96953.50;4999889;28;20058;-61
2022/08/08 05:42:44;;;;;;;12.25;5.85;;;;;;;22.54;86.91;97033.09;4999781;28;20045;-62
2022/08/08 05:45:15;;;;;;;8.48;6.38;;;;;;;22.69;85.24;97034.22;5005482;28;20590;-65
2022/08/08 05:47:56;;;;;;;8.25;6.25;;;;;;;21.94;83.93;96902.22;5004609;28;20049;-60
2022/08/08 05:50:35;;;;;;;6.75;5.93;;;;;;;23.04;83.20;97031.09;5013998;28;20401;-68
2022/08/08 05:53:02;;;;;;;7.00;6.15;;;;;;;22.91;83.41;96998.41;5017032;28;20060;-67
2022/08/08 05:55:50;;;;;;;10.02;6.38;;;;;;;23.41;82.99;97026.69;5025734;28;20064;-68
2022/08/08 05:58:40;;;;;;;10.90;6.25;;;;;;;23.69;83.70;97037.00;5024986;28;20049;-62
2022/08/08 06:01:28;;;;;;;11.52;6.88;;;;;;;23.77;83.04;97016.47;5010967;28;20508;-67
2022/08/08 06:04:19;;;;;;;9.40;5.75;;;;;;;23.53;83.12;96972.91;5005781;28;20064;-58
2022/08/08 06:06:55;;;;;;;7.50;5.65;;;;;;;24.15;82.48;97002.22;5001081;28;20076;-67
2022/08/08 06:09:31;;;;;;;9.20;5.85;;;;;;;24.63;81.37;97021.41;5014735;28;20050;-60
2022/08/08 06:12:19;;;;;;;10.88;5.10;;;;;;;24.95;78.55;97025.84;5003992;28;20046;-69
2022/08/08 06:15:00;;;;;;;6.22;4.97;;;;;;;25.13;78.80;97018.19;5005932;28;20057;-69
2022/08/08 06:17:30;;;;;;;4.88;4.38;;;;;;;25.19;76.26;96995.72;5006582;28;20045;-60
2022/08/08 06:20:17;;;;;;;5.63;4.28;;;;;;;25.54;71.78;97027.50;5005791;28;20052;-71
2022/08/08 06:22:46;;;;;;;4.85;4.25;;;;;;;25.75;72.19;97037.97;5022861;28;20409;-65
2022/08/08 06:25:16;;;;;;;10.05;5.55;;;;;;;24.95;69.60;96890.59;5005445;28;20046;-64
2022/08/08 06:27:49;;;;;;;9.30;4.43;;;;;;;26.15;66.16;97028.06;5004766;28;20054;-56
2022/08/08 06:30:18;;;;;;;7.72;4.85;;;;;;;26.34;65.23;97037.34;5014068;28;20049;-58
2022/08/08 06:32:56;;;;;;;5.60;4.85;;;;;;;26.48;64.76;97033.88;5024448;28;20093;-62
2022/08/08 06:35:30;;;;;;;6.30;3.88;;;;;;;26.60;62.76;97041.44;5008024;28;20054;-68
2022/08/08 06:38:21;;;;;;;5.15;4.22;;;;;;;26.77;57.84;97022.78;5005669;28;20065;-70
2022/08/08 06:41:04;;;;;;;4.85;4.35;;;;;;;26.96;54.60;97018.63;5003017;28;20152;-67
2022/08/08 06:43:35;;;;;;;5.97;4.70;;;;;;;27.02;56.68;96996.00;5005265;28;20054;-58
2022/08/08 06:46:04;;;;;;;6.35;3.88;;;;;;;27.46;54.82;97028.38;5000116;28;20057;-62
2022/08/08 06:48:35;;;;;;;4.88;4.13;;;;;;;27.55;53.92;97026.28;4997821;28;20135;-55
2022/08/08 06:51:04;;;;;;;7.15;4.38;;;;;;;27.47;53.72;96985.22;4986454;28;20058;-64
2022/08/08 06:53:36;;;;;;;8.90;4.93;;;;;;;27.98;54.00;97025.69;4998039;28;20045;-68
2022/08/08 06:56:07;;;;;;;8.20;4.32;;;;;;;27.79;52.73;96984.34;4986987;28;20051;-65
2022/08/08 06:58:35;;;;;;;6.00;4.03;;;;;;;27.44;50.40;96956.94;4999307;28;20075;-61
2022/08/08 07:01:04;;;;;;;5.25;4.45;;;;;;;28.05;51.04;97024.53;4991981;28;20555;-68
2022/08/08 07:04:07;;;;;;;11.02;6.75;;;;;;;27.70;51.31;96947.44;4998579;28;20512;-66
2022/08/08 07:06:59;;;;;;;4.63;3.95;;;;;;;28.33;48.60;97022.28;5012252;28;20050;-61
2022/08/08 07:09:37;;;;;;;4.60;3.72;;;;;;;28.20;47.23;97018.91;4998424;28;20057;-70
2022/08/08 07:12:34;;;;;;;8.05;3.85;;;;;;;28.05;47.93;97004.59;4987752;28;20046;-66
2022/08/08 07:15:05;;;;;;;7.45;3.65;;;;;;;28.18;44.24;97023.00;4998418;28;20052;-67
2022/08/08 07:17:49;;;;;;;7.90;3.70;;;;;;;28.42;42.91;97027.88;4993005;28;20229;-64
2022/08/08 07:20:38;;;;;;;6.30;3.70;;;;;;;28.63;44.46;97026.75;4992238;28;20512;-62
2022/08/08 07:23:30;;;;;;;4.50;3.60;;;;;;;28.59;42.13;97003.34;5001689;28;20054;-62
2022/08/08 07:26:20;;;;;;;4.63;3.53;;;;;;;28.83;40.92;97015.44;5001483;28;20128;-58
2022/08/08 07:29:01;;;;;;;5.20;3.60;;;;;;;28.77;40.87;97023.13;4997948;28;20054;-62
2022/08/08 07:31:33;;;;;;;5.93;3.60;;;;;;;28.83;41.21;97021.16;4993992;28;20042;-56
2022/08/08 07:34:02;;;;;;;6.00;4.00;;;;;;;28.29;40.25;96964.66;5001186;28;20050;-65
2022/08/08 07:36:36;;;;;;;7.05;3.70;;;;;;;28.71;40.42;97025.06;5008565;28;20057;-71
2022/08/08 07:39:20;;;;;;;4.68;3.28;;;;;;;28.90;40.59;97017.88;5003577;28;20052;-55
2022/08/08 07:41:59;;;;;;;4.90;2.95;;;;;;;28.56;40.06;96967.25;5001260;28;20042;-55
2022/08/08 07:44:31;;;;;;;4.90;3.88;;;;;;;29.01;39.94;97027.44;5016247;28;20045;-65
2022/08/08 07:47:04;;;;;;;3.95;3.55;;;;;;;29.31;41.08;97028.19;5009792;28;20682;-73
2022/08/08 07:49:31;;;;;;;4.13;3.38;;;;;;;29.44;39.38;97042.94;5001194;28;20056;-64
2022/08/08 07:51:59;;;;;;;4.13;3.28;;;;;;;29.41;40.07;97038.22;4994572;28;20080;-55
2022/08/08 07:54:42;;;;;;;4.72;3.55;;;;;;;29.38;39.31;97022.09;4998184;28;20108;-66
2022/08/08 07:57:26;;;;;;;3.90;3.38;;;;;;;29.47;39.70;97028.47;4996416;28;20168;-53
2022/08/08 08:00:05;;;;;;;3.95;3.45;;;;;;;29.70;38.22;97026.75;4995923;28;20136;-55
2022/08/08 08:03:09;;;;;;;6.82;4.00;;;;;;;29.41;39.01;97021.09;4994952;28;20046;-61
2022/08/08 08:05:52;;;;;;;5.68;4.00;;;;;;;29.12;39.31;96981.19;5022435;28;20053;-67
2022/08/08 08:08:26;;;;;;;4.40;3.92;;;;;;;29.35;38.32;96988.84;5001991;28;20151;-56
2022/08/08 08:10:57;;;;;;;5.70;3.92;;;;;;;29.82;38.43;97017.06;4998282;28;20054;-64
2022/08/08 08:14:01;;;;;;;5.47;3.28;;;;;;;29.79;37.23;97026.63;5003242;28;20050;-70
2022/08/08 08:16:38;;;;;;;7.07;4.07;;;;;;;29.51;38.69;97014.75;4999496;28;20137;-54
2022/08/08 08:19:11;;;;;;;4.70;4.30;;;;;;;29.79;38.07;97023.75;5002851;28;20454;-63
2022/08/08 08:21:49;;;;;;;4.43;3.60;;;;;;;29.74;38.60;97027.31;5008717;28;20432;-64
2022/08/08 08:24:23;;;;;;;4.28;3.88;;;;;;;29.45;38.12;97004.53;4999677;28;20112;-55
2022/08/08 08:26:59;;;;;;;4.00;3.53;;;;;;;29.68;38.40;97025.66;4999915;28;20066;-67
2022/08/08 08:29:29;;;;;;;7.18;3.97;;;;;;;29.48;37.65;97015.00;4997854;28;20062;-70
2022/08/08 08:31:56;;;;;;;6.13;3.58;;;;;;;29.30;38.43;96998.88;5005023;28;20087;-57
2022/08/08 08:34:29;;;;;;;5.63;3.85;;;;;;;29.11;38.67;96971.06;4996238;28;20125;-56
2022/08/08 08:37:00;;;;;;;4.10;3.70;;;;;;;29.28;38.54;97017.78;5005776;28;20574;-55
2022/08/08 08:39:35;;;;;;;8.55;4.03;;;;;;;29.60;38.93;97033.84;5011664;28;20576;-55
2022/08/08 08:42:25;;;;;;;3.70;3.30;;;;;;;29.41;38.23;97021.91;4992459;28;20546;-62
2022/08/08 08:45:04;;;;;;;6.22;3.58;;;;;;;29.48;37.25;97023.56;4996267;28;20086;-65
2022/08/08 08:47:49;;;;;;;4.05;3.65;;;;;;;29.25;37.13;96973.91;4999098;28;20065;-54
2022/08/08 08:50:20;;;;;;;6.25;4.35;;;;;;;29.51;37.02;97008.28;5004750;28;20161;-61
2022/08/08 08:53:11;;;;;;;8.32;5.88;;;;;;;29.89;37.06;97019.50;5006619;28;20161;-54
2022/08/08 08:55:58;;;;;;;3.90;3.60;;;;;;;29.92;36.45;97029.91;5005366;28;20508;-69
2022/08/08 08:58:35;;;;;;;4.20;3.80;;;;;;;29.89;36.37;97027.28;5000864;28;20061;-56
2022/08/08 09:01:04;;;;;;;4.43;3.97;;;;;;;29.96;35.21;97019.06;4994577;28;20717;-66
2022/08/08 09:03:38;;;;;;;7.25;5.25;;;;;;;30.08;35.29;97017.13;5001494;28;20050;-55
2022/08/08 09:06:24;;;;;;;6.45;4.47;;;;;;;29.83;35.87;96955.78;4987405;28;20054;-66
2022/08/08 09:09:08;;;;;;;;;;;;;;;30.11;34.44;97028.34;4999600;28;20050;-58
2022/08/08 09:11:59;;;;;;;4.15;3.67;;;;;;;29.97;35.19;97020.63;5000888;28;19925;-54
2022/08/08 09:14:33;;;;;;;6.22;3.50;;;;;;;29.83;35.44;97012.13;4997695;28;20054;-60
2022/08/08 09:17:01;;;;;;;6.72;6.00;;;;;;;29.85;36.12;97009.53;4985895;28;20065;-56
2022/08/08 09:19:39;;;;;;;5.22;4.68;;;;;;;30.36;36.26;97021.94;4997649;28;20082;-61
2022/08/08 09:22:26;;;;;;;2.85;2.65;;;;;;;30.31;35.61;97014.06;4989508;28;20404;-54
2022/08/08 09:24:55;;;;;;;6.97;4.00;;;;;;;30.07;35.83;97013.47;4995638;28;20065;-61
2022/08/08 09:27:25;;;;;;;4.43;4.03;;;;;;;30.37;35.74;97012.06;4989402;28;20165;-55
2022/08/08 09:30:13;;;;;;;5.85;3.70;;;;;;;30.28;35.24;97020.78;4995831;28;20050;-55
2022/08/08 09:32:53;;;;;;;5.32;4.82;;;;;;;30.16;36.15;96984.75;4992959;28;20139;-61
2022/08/08 09:35:45;;;;;;;5.47;4.30;;;;;;;29.93;35.77;96959.25;4987299;28;20062;-62
2022/08/08 09:38:45;;;;;;;4.68;4.28;;;;;;;29.97;36.02;96962.69;5001380;28;20046;-61
2022/08/08 09:41:28;;;;;;;5.32;4.28;;;;;;;30.32;35.91;96998.47;4994870;28;20046;-60
2022/08/08 09:44:20;;;;;;;4.97;4.47;;;;;;;30.68;36.22;96992.09;4999932;28;20057;-61
2022/08/08 09:47:04;;;;;;;5.47;4.97;;;;;;;30.85;36.95;97007.41;4994760;28;20049;-55
2022/08/08 09:49:55;;;;;;;5.15;4.75;;;;;;;31.02;36.90;97004.66;4994834;28;20148;-65
2022/08/08 09:52:30;;;;;;;5.85;5.35;;;;;;;30.79;35.71;97002.91;4998014;28;20132;-55
2022/08/08 09:55:19;;;;;;;7.38;5.28;;;;;;;31.06;36.54;97010.16;4994047;28;20054;-64
2022/08/08 09:58:13;;;;;;;7.65;4.85;;;;;;;30.75;36.29;96997.38;4993198;28;20574;-62
2022/08/08 10:00:55;;;;;;;12.00;5.75;;;;;;;31.17;36.55;96993.06;4994019;28;20056;-61
2022/08/08 10:03:27;;;;;;;10.05;6.32;;;;;;;31.21;35.99;97002.19;4993990;28;20045;-54
2022/08/08 10:05:57;;;;;;;8.93;5.10;;;;;;;30.98;35.78;96957.53;4993070;28;20221;-62
2022/08/08 10:08:25;;;;;;;6.50;4.90;;;;;;;31.17;36.19;96998.81;5001421;28;20061;-65
2022/08/08 10:11:00;;;;;;;9.00;6.40;;;;;;;30.63;36.54;96967.09;4987746;28;20046;-55
2022/08/08 10:13:37;;;;;;;5.53;4.45;;;;;;;30.89;37.04;96993.63;4999210;28;20064;-66
2022/08/08 10:16:08;;;;;;;6.38;4.25;;;;;;;30.80;36.62;96993.81;4988992;28;20050;-55
2022/08/08 10:18:35;;;;;;;7.30;6.00;;;;;;;30.75;36.42;96985.13;4998947;28;20046;-54
2022/08/08 10:21:12;;;;;;;4.72;4.25;;;;;;;30.92;36.92;96984.03;4990073;28;20062;-65
2022/08/08 10:24:03;;;;;;;5.95;4.45;;;;;;;30.74;36.82;96955.75;4996378;28;20614;-61
2022/08/08 10:26:59;;;;;;;7.60;4.65;;;;;;;30.75;36.45;96928.72;4991029;28;20050;-54
2022/08/08 10:29:48;;;;;;;5.53;4.20;;;;;;;31.02;36.16;96955.22;5004373;28;20045;-62
2022/08/08 10:32:35;;;;;;;5.13;4.25;;;;;;;30.65;35.97;96975.94;4992645;28;20080;-56
2022/08/08 10:35:15;;;;;;;8.27;6.50;;;;;;;31.23;35.02;96976.72;4997508;28;20523;-54
2022/08/08 10:38:04;;;;;;;4.32;4.03;;;;;;;31.10;33.45;96950.59;4999134;28;20586;-62
2022/08/08 10:40:37;;;;;;;6.88;4.00;;;;;;;31.28;34.27;96964.53;4997971;28;20142;-55
2022/08/08 10:43:05;;;;;;;16.25;7.50;;;;;;;31.54;34.51;96953.78;4999214;28;20125;-64
2022/08/08 10:45:43;;;;;;;11.88;5.35;;;;;;;31.26;34.19;96967.09;5015841;28;20530;-63
2022/08/08 10:48:36;;;;;;;15.30;7.80;;;;;;;31.40;33.83;96961.25;5027783;28;20144;-53
2022/08/08 10:51:26;;;;;;;10.93;4.57;;;;;;;31.28;34.04;96961.66;5004911;28;20563;-54
2022/08/08 10:54:21;;;;;;;5.75;3.95;;;;;;;31.35;32.98;96947.69;4989896;28;20053;-54
2022/08/08 10:57:00;;;;;;;7.40;4.38;;;;;;;31.95;31.58;96949.31;5001804;28;20115;-62
2022/08/08 10:59:29;;;;;;;5.70;4.97;;;;;;;31.57;32.73;96949.91;5011738;28;20072;-62
2022/08/08 11:02:06;;;;;;;9.45;4.70;;;;;;;31.42;32.24;96949.28;5016336;28;20050;-62
2022/08/08 11:04:43;;;;;;;15.82;8.65;;;;;;;30.99;32.68;96908.38;5005045;28;20057;-62
2022/08/08 11:07:31;;;;;;;5.57;4.70;;;;;;;31.47;32.01;96934.22;5004427;28;20054;-63
2022/08/08 11:10:20;;;;;;;4.32;3.90;;;;;;;31.60;31.03;96946.03;5004768;28;20307;-55
2022/08/08 11:13:00;;;;;;;7.78;4.55;;;;;;;32.20;31.85;96942.66;5023259;28;20084;-64
2022/08/08 11:15:48;;;;;;;9.60;6.20;;;;;;;31.51;31.24;96935.53;5024046;28;20580;-67
2022/08/08 11:18:29;;;;;;;8.52;5.00;;;;;;;31.25;31.79;96943.44;5008965;28;20136;-56
2022/08/08 11:21:00;;;;;;;8.18;6.65;;;;;;;31.71;31.40;96914.56;5004539;28;20054;-53
2022/08/08 11:23:40;;;;;;;7.22;5.68;;;;;;;31.98;32.25;96943.34;5007788;28;20477;-64
2022/08/08 11:26:11;;;;;;;5.68;4.90;;;;;;;31.95;30.32;96932.13;5016938;28;20432;-63
2022/08/08 11:28:45;;;;;;;8.45;6.78;;;;;;;31.87;30.94;96936.78;5023363;28;20064;-54
2022/08/08 11:31:15;;;;;;;5.20;4.70;;;;;;;31.86;31.17;96930.28;5023405;28;20056;-63
2022/08/08 11:33:51;;;;;;;9.05;4.63;;;;;;;31.64;31.22;96935.09;5023398;28;20053;-63
2022/08/08 11:36:31;;;;;;;5.93;4.78;;;;;;;31.97;32.02;96929.53;5021713;28;20049;-57
2022/08/08 11:39:04;;;;;;;5.32;4.15;;;;;;;32.13;31.01;96931.66;5003144;28;20089;-64
2022/08/08 11:41:37;;;;;;;12.13;7.65;;;;;;;31.84;31.28;96932.06;5003929;28;20045;-55
2022/08/08 11:44:09;;;;;;;4.97;4.40;;;;;;;30.92;31.43;96905.97;5003989;28;20049;-54
2022/08/08 11:46:38;;;;;;;5.57;3.78;;;;;;;30.77;31.45;96934.75;5003922;28;20088;-57
2022/08/08 11:49:12;;;;;;;4.10;3.75;;;;;;;30.68;31.33;96925.53;5003531;28;20147;-54
2022/08/08 11:51:43;;;;;;;8.55;4.57;;;;;;;30.45;32.14;96895.16;5003694;28;20520;-64
2022/08/08 11:54:29;;;;;;;4.60;4.30;;;;;;;30.75;31.89;96923.00;5003648;28;20062;-62
2022/08/08 11:57:16;;;;;;;6.18;4.03;;;;;;;31.04;32.14;96921.16;5003801;28;20097;-57
2022/08/08 12:00:00;;;;;;;5.28;4.78;;;;;;;31.52;31.56;96922.03;5004080;28;20433;-62
2022/08/08 12:02:31;;;;;;;7.53;5.40;;;;;;;31.46;31.79;96924.06;5004087;28;20060;-53
2022/08/08 12:05:08;;;;;;;7.97;4.40;;;;;;;31.81;31.16;96910.16;5002495;28;20061;-62
2022/08/08 12:07:45;;;;;;;7.88;4.65;;;;;;;32.21;30.04;96909.81;4997970;28;20141;-55
2022/08/08 12:10:18;;;;;;;6.55;4.22;;;;;;;32.17;29.96;96877.72;5002747;28;20508;-56
2022/08/08 12:12:48;;;;;;;8.50;7.72;;;;;;;32.23;30.48;96907.97;5003800;28;20056;-57
2022/08/08 12:15:35;;;;;;;4.85;4.05;;;;;;;32.55;30.74;96917.19;5012718;28;20136;-61
2022/08/08 12:18:25;;;;;;;4.65;4.25;;;;;;;32.43;30.21;96898.41;5005375;28;20073;-56
2022/08/08 12:20:54;;;;;;;6.30;4.90;;;;;;;32.17;31.22;96909.25;5002561;28;20061;-54
2022/08/08 12:23:31;;;;;;;6.55;4.78;;;;;;;32.55;31.15;96917.19;5007104;28;20041;-55
2022/08/08 12:26:19;;;;;;;8.32;4.78;;;;;;;32.38;29.12;96850.41;5016957;28;20123;-55
2022/08/08 12:29:17;;;;;;;8.27;5.88;;;;;;;32.15;30.08;96851.66;5003920;28;20085;-59
2022/08/08 12:31:45;;;;;;;5.20;4.45;;;;;;;30.65;30.55;96621.28;5008699;28;20061;-57
2022/08/08 12:34:42;;;;;;;6.53;5.72;;;;;;;31.97;31.02;96904.53;5005304;28;20080;-55
2022/08/08 12:37:20;;;;;;;5.32;4.80;;;;;;;31.60;31.03;96911.66;5007078;28;20145;-63
2022/08/08 12:39:48;;;;;;;4.78;4.38;;;;;;;31.20;31.67;96906.19;5025683;28;20060;-57